createdAt,value
2022-12-04T00:01:50.549Z,99.20
2022-12-04T00:04:55.323Z,125.82
2022-12-04T00:07:59.690Z,144.38
2022-12-04T00:11:09.556Z,132.82
2022-12-04T00:14:13.975Z,207.98
2022-12-04T00:17:18.627Z,79.97
2022-12-04T00:20:23.910Z,91.03
2022-12-04T00:23:29.894Z,31.92
2022-12-04T00:26:34.471Z,48.55
2022-12-04T00:29:38.820Z,20.08
2022-12-04T00:32:43.405Z,28.50
2022-12-04T00:35:47.771Z,27.47
2022-12-04T00:38:52.645Z,29.65
2022-12-04T00:41:56.931Z,35.85
2022-12-04T00:45:01.493Z,24.33
2022-12-04T00:48:06.648Z,19.35
2022-12-04T00:51:17.262Z,101.68
2022-12-04T00:54:21.770Z,11.63
2022-12-04T00:57:26.077Z,29.98
2022-12-04T01:00:30.502Z,9.70
2022-12-04T01:03:35.296Z,11.23
2022-12-04T01:06:40.107Z,9.98
2022-12-04T01:09:44.233Z,24.92
2022-12-04T01:12:52.564Z,18.17
2022-12-04T01:15:56.957Z,24.83
2022-12-04T01:19:02.962Z,8.70
2022-12-04T01:22:07.619Z,13.00
2022-12-04T01:25:12.580Z,16.50
2022-12-04T01:28:17.097Z,11.38
2022-12-04T01:31:23.526Z,18.47
2022-12-04T01:34:27.746Z,20.02
2022-12-04T01:37:34.604Z,18.63
2022-12-04T01:40:48.493Z,218.75
2022-12-04T01:44:17.873Z,99.43
2022-12-04T01:47:22.366Z,98.47
2022-12-04T01:50:30.841Z,48.05
2022-12-04T01:56:49.351Z,11.65
2022-12-04T02:00:13.352Z,38.65
2022-12-04T02:03:18.792Z,18.30
2022-12-04T02:06:22.969Z,16.75
2022-12-04T02:09:28.226Z,17.27
2022-12-04T02:13:21.492Z,14.35
2022-12-04T02:17:02.091Z,20.25
2022-12-04T02:20:26.988Z,2.97
2022-12-04T02:23:57.358Z,15.35
2022-12-04T02:27:10.019Z,15.95
2022-12-04T02:30:16.450Z,17.17
2022-12-04T02:33:27.371Z,63.83
2022-12-04T02:36:37.725Z,19.55
2022-12-04T02:39:48.933Z,24.70
2022-12-04T02:43:10.985Z,12.10
2022-12-04T02:46:51.601Z,3.50
2022-12-04T02:50:07.993Z,2.13
2022-12-04T02:53:18.190Z,10.80
2022-12-04T02:56:30.239Z,9.45
2022-12-04T02:59:44.005Z,8.18
2022-12-04T03:03:08.581Z,6.50
2022-12-04T03:06:15.141Z,19.45
2022-12-04T03:09:26.588Z,34.50
2022-12-04T03:12:50.730Z,57.58
2022-12-04T03:16:05.644Z,31.65
2022-12-04T03:19:10.525Z,17.83
2022-12-04T03:22:19.399Z,19.05
2022-12-04T03:25:31.863Z,24.15
2022-12-04T03:29:05.125Z,7.97
2022-12-04T03:32:15.013Z,11.25
2022-12-04T03:35:32.152Z,10.63
2022-12-04T03:39:00.338Z,12.15
2022-12-04T03:42:22.072Z,11.05
2022-12-04T03:45:28.877Z,22.25
2022-12-04T03:48:57.456Z,14.18
2022-12-04T03:52:14.442Z,13.68
2022-12-04T03:55:33.875Z,7.38
2022-12-04T03:58:43.298Z,14.88
2022-12-04T04:01:50.605Z,30.35
2022-12-04T04:04:58.893Z,13.07
2022-12-04T04:08:24.647Z,6.93
2022-12-04T04:11:49.880Z,19.02
2022-12-04T04:15:20.502Z,14.15
2022-12-04T04:18:44.799Z,149.75
2022-12-04T04:22:10.042Z,12.23
2022-12-04T04:25:21.727Z,21.83
2022-12-04T04:28:42.162Z,15.13
2022-12-04T04:32:08.815Z,11.00
2022-12-04T04:35:21.275Z,13.02
2022-12-04T04:38:30.086Z,12.45
2022-12-04T04:41:57.254Z,35.15
2022-12-04T04:45:15.047Z,14.25
2022-12-04T04:48:35.984Z,24.13
2022-12-04T04:51:41.075Z,7.28
2022-12-04T04:54:47.425Z,28.55
2022-12-04T04:57:52.139Z,22.20
2022-12-04T05:01:08.846Z,12.93
2022-12-04T05:04:13.628Z,13.45
2022-12-04T05:07:18.241Z,14.73
2022-12-04T05:10:22.680Z,17.08
2022-12-04T05:13:28.532Z,19.10
2022-12-04T05:16:33.346Z,20.10
2022-12-04T05:19:57.292Z,26.65
2022-12-04T05:23:02.290Z,46.30
2022-12-04T05:26:07.093Z,9.00
2022-12-04T05:29:11.809Z,15.75
2022-12-04T05:32:16.161Z,31.13
2022-12-04T05:35:20.761Z,4.53
2022-12-04T05:38:25.087Z,14.97
2022-12-04T05:41:29.793Z,6.70
2022-12-04T05:44:34.162Z,15.33
2022-12-04T05:47:45.878Z,64.55
2022-12-04T05:50:50.303Z,17.03
2022-12-04T05:53:54.835Z,9.77
2022-12-04T05:56:59.073Z,14.13
2022-12-04T06:00:04.021Z,7.03
2022-12-04T06:03:15.178Z,20.00
2022-12-04T06:06:25.402Z,6.10
2022-12-04T06:09:30.042Z,11.20
2022-12-04T06:12:34.381Z,10.37
2022-12-04T06:15:42.163Z,11.63
2022-12-04T06:18:46.643Z,25.63
2022-12-04T06:21:54.158Z,7.77
2022-12-04T06:24:58.510Z,9.50
2022-12-04T06:28:03.249Z,29.60
2022-12-04T06:31:13.128Z,17.60
2022-12-04T06:34:17.811Z,34.47
2022-12-04T06:37:24.278Z,3.85
2022-12-04T06:40:28.738Z,12.40
2022-12-04T06:43:33.374Z,10.97
2022-12-04T06:46:41.011Z,10.05
2022-12-04T06:49:52.770Z,8.45
2022-12-04T06:52:57.735Z,10.70
2022-12-04T06:56:05.547Z,19.03
2022-12-04T06:59:11.454Z,14.13
2022-12-04T07:02:15.949Z,19.55
2022-12-04T07:05:20.668Z,44.30
2022-12-04T07:08:25.126Z,20.77
2022-12-04T07:11:31.046Z,10.95
2022-12-04T07:14:35.450Z,18.17
2022-12-04T07:17:40.150Z,19.33
2022-12-04T07:20:44.326Z,10.30
2022-12-04T07:23:53.715Z,11.55
2022-12-04T07:26:58.147Z,32.25
2022-12-04T07:30:02.635Z,19.92
2022-12-04T07:33:07.574Z,24.75
2022-12-04T07:36:15.482Z,24.75
2022-12-04T07:39:19.882Z,11.00
2022-12-04T07:42:24.751Z,10.77
2022-12-04T07:45:28.847Z,21.55
2022-12-04T07:48:33.619Z,27.77
2022-12-04T07:51:38.188Z,29.60
2022-12-04T07:54:42.713Z,34.25
2022-12-04T07:57:47.385Z,30.83
2022-12-04T08:00:51.609Z,48.15
2022-12-04T08:03:58.742Z,40.30
2022-12-04T08:07:03.121Z,36.30
2022-12-04T08:10:07.904Z,38.37
2022-12-04T08:13:12.008Z,36.25
2022-12-04T08:16:17.478Z,35.85
2022-12-04T08:19:22.733Z,32.47
2022-12-04T08:22:27.102Z,37.55
2022-12-04T08:25:31.537Z,29.50
2022-12-04T08:28:36.866Z,28.90
2022-12-04T08:31:41.812Z,34.80
2022-12-04T08:34:49.785Z,36.05
2022-12-04T08:37:56.814Z,31.90
2022-12-04T08:41:05.962Z,66.40
2022-12-04T08:44:11.312Z,67.28
2022-12-04T08:47:15.845Z,44.50
2022-12-04T08:50:20.256Z,35.08
2022-12-04T08:53:25.653Z,49.85
2022-12-04T08:59:35.063Z,246.90
2022-12-04T09:02:39.817Z,249.98
2022-12-04T09:05:46.670Z,229.02
2022-12-04T09:08:55.205Z,131.82
2022-12-04T09:11:59.549Z,108.82
2022-12-04T09:15:04.244Z,253.32
2022-12-04T09:18:10.267Z,74.68
2022-12-04T09:21:16.960Z,79.18
2022-12-04T09:24:21.620Z,145.43
2022-12-04T09:27:27.427Z,71.97
2022-12-04T09:30:31.781Z,82.95
2022-12-04T09:33:36.436Z,116.10
2022-12-04T09:36:40.619Z,62.42
2022-12-04T09:39:45.384Z,83.13
2022-12-04T09:43:10.839Z,48.47
2022-12-04T09:46:29.144Z,208.98
2022-12-04T09:49:59.447Z,133.98
2022-12-04T09:53:06.691Z,201.40
2022-12-04T09:56:18.251Z,188.52
2022-12-04T09:59:28.986Z,140.70
2022-12-04T10:02:36.513Z,167.60
2022-12-04T10:05:53.513Z,139.77
2022-12-04T10:09:12.007Z,164.82
2022-12-04T10:12:34.513Z,180.32
2022-12-04T10:15:51.184Z,217.10
2022-12-04T10:19:28.884Z,99.53
2022-12-04T10:22:59.232Z,398.10
2022-12-04T10:26:06.733Z,171.85
2022-12-04T10:29:20.313Z,317.60
2022-12-04T10:32:30.200Z,262.13
2022-12-04T10:35:38.877Z,241.55
2022-12-04T10:39:22.662Z,151.30
2022-12-04T10:42:50.639Z,168.52
2022-12-04T10:45:55.310Z,237.57
2022-12-04T10:49:13.608Z,417.30
2022-12-04T10:52:18.656Z,297.55
2022-12-04T10:55:34.751Z,288.90
2022-12-04T10:58:39.172Z,206.50
2022-12-04T11:01:43.920Z,314.00
2022-12-04T11:04:59.508Z,257.42
2022-12-04T11:08:06.738Z,186.27
2022-12-04T11:11:14.494Z,310.02
2022-12-04T11:14:24.394Z,110.93
2022-12-04T11:17:29.049Z,117.90
2022-12-04T11:20:33.927Z,154.68
2022-12-04T11:23:50.247Z,115.82
2022-12-04T11:26:55.155Z,145.63
2022-12-04T11:30:04.021Z,213.32
2022-12-04T11:33:19.513Z,212.25
2022-12-04T11:36:29.515Z,142.48
2022-12-04T11:39:40.894Z,199.70
2022-12-04T11:42:45.547Z,144.18
2022-12-04T11:46:06.325Z,145.15
2022-12-04T11:49:25.604Z,158.10
2022-12-04T11:52:42.020Z,83.50
2022-12-04T11:56:03.162Z,53.78
2022-12-04T11:59:28.879Z,66.65
2022-12-04T12:02:52.251Z,57.30
2022-12-04T12:06:08.118Z,71.20
2022-12-04T12:09:18.360Z,77.97
2022-12-04T12:12:31.722Z,44.58
2022-12-04T12:15:54.104Z,41.50
2022-12-04T12:19:20.642Z,51.05
2022-12-04T12:22:29.537Z,30.75
2022-12-04T12:26:06.029Z,22.00
2022-12-04T12:29:17.332Z,42.70
2022-12-04T12:32:47.517Z,126.05
2022-12-04T12:36:07.361Z,186.85
2022-12-04T12:39:41.220Z,204.10
2022-12-04T12:42:58.236Z,99.47
2022-12-04T12:46:22.313Z,147.20
2022-12-04T12:49:36.643Z,100.50
2022-12-04T12:52:53.828Z,85.13
2022-12-04T12:56:03.530Z,38.10
2022-12-04T12:59:18.396Z,56.03
2022-12-04T13:02:40.336Z,39.38
2022-12-04T13:05:52.062Z,302.17
2022-12-04T13:09:07.080Z,102.20
2022-12-04T13:12:15.978Z,194.43
2022-12-04T13:15:25.726Z,145.55
2022-12-04T13:18:35.677Z,107.18
2022-12-04T13:21:46.573Z,119.28
2022-12-04T13:25:08.982Z,108.65
2022-12-04T13:28:38.765Z,104.18
2022-12-04T13:32:27.467Z,79.53
2022-12-04T13:35:45.832Z,164.25
2022-12-04T13:39:03.748Z,155.45
2022-12-04T13:42:21.618Z,135.32
2022-12-04T13:45:33.344Z,129.38
2022-12-04T13:48:41.667Z,127.80
2022-12-04T13:51:48.890Z,98.45
2022-12-04T13:55:02.263Z,100.88
2022-12-04T13:58:12.916Z,83.78
2022-12-04T14:01:46.296Z,77.75
2022-12-04T14:05:08.893Z,135.25
2022-12-04T14:08:27.540Z,81.07
2022-12-04T14:11:43.996Z,99.50
2022-12-04T14:15:01.711Z,56.08
2022-12-04T14:18:13.496Z,78.28
2022-12-04T14:21:17.903Z,181.30
2022-12-04T14:24:39.841Z,71.03
2022-12-04T14:27:46.259Z,42.80
2022-12-04T14:31:20.292Z,117.57
2022-12-04T14:34:35.344Z,61.63
2022-12-04T14:37:46.063Z,133.90
2022-12-04T14:40:53.893Z,81.97
2022-12-04T14:43:59.257Z,86.32
2022-12-04T14:47:34.794Z,81.85
2022-12-04T14:54:27.732Z,95.70
2022-12-04T14:57:55.393Z,174.77
2022-12-04T15:01:05.608Z,92.97
2022-12-04T15:04:34.864Z,85.57
2022-12-04T15:07:54.878Z,71.35
2022-12-04T15:11:18.355Z,109.63
2022-12-04T15:14:22.649Z,81.55
2022-12-04T15:17:26.896Z,36.65
2022-12-04T15:20:43.848Z,25.10
2022-12-04T15:23:48.324Z,59.58
2022-12-04T15:26:56.605Z,90.35
2022-12-04T15:30:03.657Z,68.40
2022-12-04T15:33:14.121Z,56.75
2022-12-04T15:36:49.939Z,67.88
2022-12-04T15:39:56.578Z,47.75
2022-12-04T15:43:17.577Z,65.15
2022-12-04T15:46:31.798Z,61.38
2022-12-04T15:49:36.249Z,26.50
2022-12-04T15:52:49.921Z,37.17
2022-12-04T15:55:57.745Z,49.83
2022-12-04T15:59:03.507Z,22.77
2022-12-04T16:02:30.513Z,50.17
2022-12-04T16:05:38.056Z,33.33
2022-12-04T16:08:44.973Z,20.25
2022-12-04T16:12:18.077Z,20.80
2022-12-04T16:15:23.735Z,40.50
2022-12-04T16:18:29.629Z,30.40
2022-12-04T16:21:34.163Z,33.90
2022-12-04T16:24:38.674Z,36.53
2022-12-04T16:27:43.053Z,60.92
2022-12-04T16:30:47.951Z,41.30
2022-12-04T16:33:53.067Z,46.85
2022-12-04T16:36:59.036Z,32.65
2022-12-04T16:40:07.267Z,48.85
2022-12-04T16:43:15.907Z,28.23
2022-12-04T16:46:21.555Z,61.17
2022-12-04T16:49:26.142Z,42.63
2022-12-04T16:52:30.607Z,19.73
2022-12-04T16:55:40.726Z,42.58
2022-12-04T16:58:45.394Z,58.83
2022-12-04T17:01:51.251Z,65.68
2022-12-04T17:04:57.813Z,56.22
2022-12-04T17:08:03.173Z,42.75
2022-12-04T17:11:11.625Z,34.38
2022-12-04T17:14:16.234Z,41.63
2022-12-04T17:17:20.758Z,29.55
2022-12-04T17:20:25.806Z,44.25
2022-12-04T17:23:30.150Z,24.02
2022-12-04T17:26:34.565Z,26.23
2022-12-04T17:29:38.867Z,20.52
2022-12-04T17:32:43.456Z,19.55
2022-12-04T17:38:58.567Z,8.90
2022-12-04T17:42:03.313Z,12.10
2022-12-04T17:45:09.933Z,15.90
2022-12-04T17:48:14.603Z,19.92
2022-12-04T17:51:21.823Z,23.70
2022-12-04T17:54:27.567Z,6.32
2022-12-04T17:57:32.043Z,39.50
2022-12-04T18:03:43.663Z,30.95
2022-12-04T18:06:49.602Z,35.13
2022-12-04T18:09:54.169Z,32.05
2022-12-04T18:12:58.695Z,10.93
2022-12-04T18:16:07.852Z,28.63
2022-12-04T18:19:13.707Z,14.10
2022-12-04T18:22:18.149Z,11.73
2022-12-04T18:25:22.756Z,51.75
2022-12-04T18:28:30.442Z,22.27
2022-12-04T18:31:35.458Z,35.13
2022-12-04T18:34:41.176Z,40.88
2022-12-04T18:37:47.161Z,6.30
2022-12-04T18:40:52.045Z,54.72
2022-12-04T18:43:56.640Z,31.92
2022-12-04T18:47:01.543Z,46.50
2022-12-04T18:50:05.894Z,64.93
2022-12-04T18:53:12.862Z,47.85
2022-12-04T18:56:18.347Z,48.90
2022-12-04T18:59:26.536Z,40.17
2022-12-04T19:02:32.192Z,25.75
2022-12-04T19:05:36.973Z,63.53
2022-12-04T19:08:43.515Z,19.05
2022-12-04T19:11:49.787Z,46.45
2022-12-04T19:14:54.158Z,30.85
2022-12-04T19:17:58.452Z,22.38
2022-12-04T19:21:06.643Z,57.00
2022-12-04T19:24:11.759Z,36.33
2022-12-04T19:27:16.245Z,29.20
2022-12-04T19:30:22.242Z,29.85
2022-12-04T19:33:26.770Z,4.65
2022-12-04T19:39:36.138Z,10.05
2022-12-04T19:42:40.739Z,18.70
2022-12-04T19:45:53.817Z,10.05
2022-12-04T19:49:02.695Z,39.95
2022-12-04T19:52:07.446Z,12.80
2022-12-04T19:55:12.063Z,34.22
2022-12-04T19:58:16.358Z,17.98
2022-12-04T20:01:25.168Z,25.08
2022-12-04T20:04:29.681Z,43.17
2022-12-04T20:07:34.097Z,25.48
2022-12-04T20:10:38.849Z,44.92
2022-12-04T20:13:44.805Z,219.27
2022-12-04T20:16:49.404Z,147.98
2022-12-04T20:19:54.441Z,73.15
2022-12-04T20:22:59.451Z,129.38
2022-12-04T20:26:09.502Z,47.08
2022-12-04T20:29:16.071Z,98.10
2022-12-04T20:32:20.513Z,37.92
2022-12-04T20:38:28.955Z,41.03
2022-12-04T20:41:34.163Z,22.85
2022-12-04T20:44:38.676Z,41.28
2022-12-04T20:50:47.023Z,27.23
2022-12-04T20:53:52.715Z,33.25
2022-12-04T20:56:57.945Z,38.55
2022-12-04T21:00:02.997Z,66.85
2022-12-04T21:03:07.597Z,74.47
2022-12-04T21:06:24.985Z,111.70
2022-12-04T21:09:31.649Z,67.70
2022-12-04T21:12:54.259Z,63.72
2022-12-04T21:16:04.525Z,37.22
2022-12-04T21:19:11.755Z,34.78
2022-12-04T21:22:17.619Z,31.98
2022-12-04T21:25:21.850Z,27.27
2022-12-04T21:28:26.467Z,26.55
2022-12-04T21:31:31.363Z,25.23
2022-12-04T21:34:36.322Z,26.05
2022-12-04T21:37:40.582Z,19.75
2022-12-04T21:40:44.916Z,29.85
2022-12-04T21:43:49.519Z,78.20
2022-12-04T21:49:58.261Z,18.02
2022-12-04T21:53:02.716Z,13.45
2022-12-04T21:56:07.480Z,24.40
2022-12-04T21:59:12.095Z,73.07
2022-12-04T22:02:17.786Z,54.60
2022-12-04T22:05:22.190Z,83.80
2022-12-04T22:08:26.957Z,59.47
2022-12-04T22:11:31.405Z,52.60
2022-12-04T22:14:35.839Z,74.10
2022-12-04T22:17:40.054Z,74.82
2022-12-04T22:20:45.241Z,59.22
2022-12-04T22:23:49.582Z,39.78
2022-12-04T22:26:53.897Z,32.25
2022-12-04T22:29:58.138Z,23.15
2022-12-04T22:33:03.922Z,24.55
2022-12-04T22:36:11.384Z,81.90
2022-12-04T22:39:15.717Z,84.43
2022-12-04T22:45:23.927Z,37.13
2022-12-04T22:48:31.259Z,61.03
2022-12-04T22:51:35.484Z,41.45
2022-12-04T22:54:39.768Z,167.75
2022-12-04T22:57:44.198Z,271.20
2022-12-04T23:00:49.328Z,351.20
2022-12-04T23:03:54.516Z,231.95
2022-12-04T23:06:59.125Z,290.73
2022-12-04T23:10:03.872Z,168.95
2022-12-04T23:13:08.177Z,94.25
2022-12-04T23:16:18.369Z,163.40
2022-12-04T23:19:24.896Z,146.88
2022-12-04T23:22:29.225Z,35.38
2022-12-04T23:25:33.852Z,56.28
2022-12-04T23:28:38.405Z,188.82
2022-12-04T23:31:42.938Z,117.75
2022-12-04T23:34:47.685Z,59.90
2022-12-04T23:41:12.814Z,83.95
2022-12-04T23:44:17.168Z,66.68
2022-12-04T23:47:21.584Z,118.43
2022-12-04T23:50:26.089Z,125.93
2022-12-04T23:53:30.727Z,28.48
2022-12-04T23:56:35.289Z,39.67
2022-12-04T23:59:39.684Z,61.78
